Radium, Texas
Current Conditions -  °F | °C
As of 7:58 PM on Saturday 25 Oct 2014 (Local Time) from KDYS Reporting Station
Haze Haze  
Wind Chill: 74°   Ceiling: Unl
Heat Index: 74°   Visibility: 5mi
Dew Point: 51°   Wind: 3mph
Humidity: 46%   Direction: 180°S
Pressure: 30.06"   Gusts: NA
Location:  32.755°N, 99.9177°W
Report Text: KDYS 260058Z AUTO 18003KT 5SM HZ CLR 23/11 A3006 RMK AO2 SLP146 T02310108 $
Loading
Personal Weather Stations






























Interactive Weather Map
Tropical Storm Tracking
New forecast layout! Learn more

10-Day Weather Forecast

Advertisements
Track Severe Weather on mobile